»·PEaware :: WAT2776 KLAS-KSBA

WAT2776 :: KLAS-KSBA

FLIGHT INFORMATION

Flight Status: Arrived
Operator:
Walker Air Transport
More flights by this operator :: More flights under this callsign
Pilot: Anonymous 40054 (40054)
Aircraft: AIRBUS A320
(A320)
More flights by this aircraft type
Origin: KLAS Harry Reid Intl
United States
Destination: KSBA Santa Barbara Mun
United States
More flights between these airports :: More routes between these airports
Route: RADYR2 HEC PITBL1
File this flight plan on PilotEdge
Remarks:
Altitude:
(Current/Filed)
34,000ft
Speed:
(Current/Filed)
460kts
Departed: 23-Sep-22 12:28 PM
Arrived: 23-Sep-22 01:13 PM
Distance/Time
Traveled:
250nm/0:45
Distance/Time
To Go:
Arrived

Flight Plot

Page will automatically refresh every two minutes.

Flight plan parsing failed; only flown route is shown


Map Options




Map Legend


Flown Route
Filed Route
Departure Airport
Arrival Airport
Navaid (VOR, NDB)
Fix

Horizontal Profiles

Position Reports

Time Latitude Longitude Heading Altitude Ground
Speed
23-Sep-22 11:45 36.083317 -115.153153 158 2189ft 0kts
23-Sep-22 11:46 36.083316 -115.153153 158 2188ft 0kts
23-Sep-22 11:47 36.083316 -115.153153 158 2188ft 0kts
23-Sep-22 11:48 36.083316 -115.153153 158 2188ft 0kts
23-Sep-22 11:49 36.083316 -115.153153 158 2188ft 0kts
23-Sep-22 11:50 36.083316 -115.153153 158 2188ft 0kts
23-Sep-22 11:51 36.083316 -115.153153 158 2188ft 0kts
23-Sep-22 11:52 36.083316 -115.153153 158 2188ft 0kts
23-Sep-22 11:53 36.083316 -115.153153 158 2188ft 0kts
23-Sep-22 11:54 36.083316 -115.153153 158 2188ft 0kts
23-Sep-22 11:55 36.083316 -115.153153 158 2188ft 0kts
23-Sep-22 11:56 36.083316 -115.153153 158 2188ft 0kts
23-Sep-22 11:57 36.083316 -115.153153 158 2188ft 0kts
23-Sep-22 11:58 36.083316 -115.153153 158 2188ft 0kts
23-Sep-22 11:59 36.083316 -115.153153 158 2188ft 0kts
23-Sep-22 12:00 36.083316 -115.153153 158 2188ft 0kts
23-Sep-22 12:01 36.083316 -115.153153 158 2188ft 0kts
23-Sep-22 12:02 36.083316 -115.153153 158 2188ft 0kts
23-Sep-22 12:03 36.083316 -115.153153 158 2188ft 0kts
23-Sep-22 12:04 36.083316 -115.153153 158 2188ft 0kts
23-Sep-22 12:05 36.083316 -115.153153 158 2188ft 0kts
23-Sep-22 12:06 36.083316 -115.153153 158 2188ft 0kts
23-Sep-22 12:07 36.083316 -115.153153 158 2188ft 0kts
23-Sep-22 12:08 36.083316 -115.153153 158 2188ft 0kts
23-Sep-22 12:09 36.083316 -115.153153 158 2188ft 0kts
23-Sep-22 12:10 36.083316 -115.153153 158 2188ft 0kts
23-Sep-22 12:11 36.083316 -115.153153 158 2188ft 0kts
23-Sep-22 12:12 36.083316 -115.153153 158 2188ft 0kts
23-Sep-22 12:13 36.083316 -115.153153 158 2188ft 0kts
23-Sep-22 12:14 36.083317 -115.153153 158 2188ft 0kts
23-Sep-22 12:15 36.083628 -115.153302 164 2189ft 2kts
23-Sep-22 12:16 36.084010 -115.153128 223 2192ft 0kts
23-Sep-22 12:17 36.084010 -115.153128 223 2192ft 0kts
23-Sep-22 12:18 36.084010 -115.153128 223 2192ft 0kts
23-Sep-22 12:19 36.084010 -115.153128 223 2192ft 0kts
23-Sep-22 12:20 36.084010 -115.153128 223 2192ft 0kts
23-Sep-22 12:21 36.083919 -115.153590 263 2191ft 7kts
23-Sep-22 12:22 36.083752 -115.156215 334 2188ft 9kts
23-Sep-22 12:23 36.087188 -115.157860 22 2188ft 16kts
23-Sep-22 12:24 36.091386 -115.155433 25 2188ft 16kts
23-Sep-22 12:25 36.095852 -115.152883 25 2188ft 17kts
23-Sep-22 12:26 36.097973 -115.153905 206 2191ft 0kts
23-Sep-22 12:27 36.073478 -115.168107 206 2589ft 162kts
23-Sep-22 12:28 36.030538 -115.194436 207 4436ft 187kts
23-Sep-22 12:29 35.973869 -115.223943 198 5534ft 262kts
23-Sep-22 12:30 35.900903 -115.255905 201 8650ft 284kts
23-Sep-22 12:31 35.823266 -115.291148 202 11067ft 327kts
23-Sep-22 12:32 35.730636 -115.333156 202 13258ft 367kts
23-Sep-22 12:33 35.632951 -115.377498 205 15838ft 381kts
23-Sep-22 12:34 35.552812 -115.463967 228 18072ft 394kts
23-Sep-22 12:35 35.477746 -115.565232 228 19997ft 407kts
23-Sep-22 12:36 35.400456 -115.669158 228 21909ft 418kts
23-Sep-22 12:37 35.320727 -115.775812 227 23690ft 430kts
23-Sep-22 12:38 35.238281 -115.883620 227 25184ft 439kts
23-Sep-22 12:39 35.154165 -115.993794 227 26591ft 445kts
23-Sep-22 12:40 35.069858 -116.105519 227 28038ft 449kts
23-Sep-22 12:41 34.985623 -116.216202 227 29914ft 441kts
23-Sep-22 12:42 34.902478 -116.325247 227 31321ft 436kts
23-Sep-22 12:43 34.820802 -116.433067 232 32647ft 431kts
23-Sep-22 12:44 34.781436 -116.568505 257 33726ft 431kts
23-Sep-22 12:45 34.760252 -116.712142 257 34103ft 431kts
23-Sep-22 12:46 34.738800 -116.855128 257 34096ft 431kts
23-Sep-22 12:47 34.717171 -116.998756 257 34070ft 431kts
23-Sep-22 12:48 34.695391 -117.141635 257 34090ft 431kts
23-Sep-22 12:49 34.673608 -117.284433 256 34145ft 431kts
23-Sep-22 12:50 34.651459 -117.427816 256 34155ft 430kts
23-Sep-22 12:51 34.629352 -117.570118 256 34115ft 430kts
23-Sep-22 12:52 34.606929 -117.712633 256 34069ft 429kts
23-Sep-22 12:53 34.584503 -117.854571 256 34100ft 428kts
23-Sep-22 12:54 34.561876 -117.996458 256 33830ft 427kts
23-Sep-22 12:55 34.539161 -118.137908 256 32821ft 430kts
23-Sep-22 12:56 34.517026 -118.274263 256 31848ft 423kts
23-Sep-22 12:57 34.494409 -118.413208 256 30519ft 413kts
23-Sep-22 12:58 34.472395 -118.548166 257 28115ft 404kts
23-Sep-22 12:59 34.450681 -118.680436 257 25819ft 399kts
23-Sep-22 13:00 34.428751 -118.811915 257 23387ft 401kts
23-Sep-22 13:01 34.405247 -118.948908 257 20244ft 421kts
23-Sep-22 13:02 34.382102 -119.082847 256 16387ft 401kts
23-Sep-22 13:03 34.360434 -119.212102 256 13921ft 383kts
23-Sep-22 13:04 34.339631 -119.335730 256 11078ft 365kts
23-Sep-22 13:05 34.321868 -119.439881 255 10337ft 286kts
23-Sep-22 13:06 34.317932 -119.532405 284 7586ft 285kts
23-Sep-22 13:07 34.349422 -119.618059 295 5228ft 254kts
23-Sep-22 13:08 34.376494 -119.687999 294 3492ft 213kts
23-Sep-22 13:09 34.400680 -119.749565 294 2216ft 173kts
23-Sep-22 13:10 34.419167 -119.797361 291 941ft 148kts
23-Sep-22 13:11 34.427789 -119.841091 266 18ft 98kts
23-Sep-22 13:12 34.426426 -119.851305 91 18ft 12kts
23-Sep-22 13:13 34.426457 -119.850149 87 18ft 10kts
23-Sep-22 13:14 34.426566 -119.844951 88 18ft 16kts
23-Sep-22 13:15 34.426696 -119.838786 89 20ft 11kts
23-Sep-22 13:16 34.425161 -119.837363 113 18ft 0kts
23-Sep-22 13:17 34.425112 -119.837232 114 18ft 0kts
23-Sep-22 13:18 34.425112 -119.837232 114 18ft 0kts
23-Sep-22 13:19 34.425112 -119.837232 114 18ft 0kts
23-Sep-22 13:20 34.425112 -119.837232 114 18ft 0kts

Navigation Log

Ident Type
Flight plan parsing failed, navigation log unavailable